createdAt,value
2018-08-06T00:00:36.189Z,65.56
2018-08-06T00:03:05.166Z,65.27
2018-08-06T00:05:34.122Z,66.27
2018-08-06T00:08:03.178Z,65.95
2018-08-06T00:10:32.136Z,67.08
2018-08-06T00:13:01.121Z,66.76
2018-08-06T00:15:30.175Z,67.25
2018-08-06T00:17:59.138Z,67.65
2018-08-06T00:20:28.059Z,67.62
2018-08-06T00:22:57.007Z,68.41
2018-08-06T00:25:26.019Z,67.87
2018-08-06T00:27:54.938Z,68.79
2018-08-06T00:30:23.859Z,68.59
2018-08-06T00:32:52.822Z,68.50
2018-08-06T00:35:21.826Z,69.21
2018-08-06T00:37:50.766Z,69.71
2018-08-06T00:40:20.967Z,69.27
2018-08-06T00:42:50.311Z,69.04
2018-08-06T00:45:20.532Z,69.66
2018-08-06T00:47:49.896Z,69.45
2018-08-06T00:50:18.830Z,69.53
2018-08-06T00:52:47.787Z,69.54
2018-08-06T00:55:18.274Z,69.52
2018-08-06T00:57:47.238Z,69.92
2018-08-06T01:00:17.428Z,69.67
2018-08-06T01:02:46.407Z,69.32
2018-08-06T01:05:15.955Z,69.02
2018-08-06T01:07:46.017Z,69.51
2018-08-06T01:10:16.260Z,68.85
2018-08-06T01:12:45.298Z,69.27
2018-08-06T01:15:17.603Z,68.70
2018-08-06T01:17:46.533Z,68.76
2018-08-06T01:20:15.792Z,69.09
2018-08-06T01:22:45.472Z,69.63
2018-08-06T01:25:14.846Z,69.90
2018-08-06T01:27:43.835Z,69.32
2018-08-06T01:30:14.058Z,68.99
2018-08-06T01:32:43.261Z,69.38
2018-08-06T01:35:12.473Z,69.31
2018-08-06T01:37:41.474Z,71.34
2018-08-06T01:40:13.127Z,71.85
2018-08-06T01:42:42.283Z,71.44
2018-08-06T01:45:12.722Z,71.43
2018-08-06T01:47:41.658Z,71.20
2018-08-06T01:50:11.470Z,69.48
2018-08-06T01:52:40.815Z,69.66
2018-08-06T01:55:09.754Z,71.01
2018-08-06T01:57:38.734Z,71.08
2018-08-06T02:00:12.535Z,71.22
2018-08-06T02:02:41.567Z,71.53
2018-08-06T02:05:10.939Z,71.19
2018-08-06T02:07:40.368Z,71.27
2018-08-06T02:10:11.914Z,70.95
2018-08-06T02:12:41.250Z,70.80
2018-08-06T02:15:10.957Z,71.64
2018-08-06T02:17:40.164Z,71.58
2018-08-06T02:20:11.144Z,71.66
2018-08-06T02:22:40.094Z,71.53
2018-08-06T02:25:09.871Z,70.98
2018-08-06T02:27:38.806Z,71.32
2018-08-06T02:30:10.824Z,71.96
2018-08-06T02:32:40.056Z,72.87
2018-08-06T02:35:11.090Z,73.04
2018-08-06T02:37:40.667Z,72.45
2018-08-06T02:40:11.663Z,73.04
2018-08-06T02:42:40.650Z,72.42
2018-08-06T02:45:10.276Z,72.79
2018-08-06T02:47:39.844Z,72.54
2018-08-06T02:50:10.098Z,72.14
2018-08-06T02:52:39.454Z,72.56
2018-08-06T02:55:09.998Z,71.96
2018-08-06T02:57:38.946Z,73.36
2018-08-06T03:00:10.972Z,73.38
2018-08-06T03:02:40.018Z,74.83
2018-08-06T03:05:11.074Z,74.80
2018-08-06T03:07:40.220Z,74.95
2018-08-06T03:10:09.223Z,75.04
2018-08-06T03:12:38.252Z,74.88
2018-08-06T03:15:08.194Z,74.86
2018-08-06T03:17:37.346Z,74.87
2018-08-06T03:20:07.681Z,74.47
2018-08-06T03:22:37.461Z,72.81
2018-08-06T03:25:07.784Z,72.97
2018-08-06T03:27:36.784Z,73.14
2018-08-06T03:30:08.063Z,73.02
2018-08-06T03:32:37.003Z,71.96
2018-08-06T03:35:07.095Z,71.55
2018-08-06T03:37:36.139Z,71.48
2018-08-06T03:40:05.153Z,72.28
2018-08-06T03:42:34.056Z,71.49
2018-08-06T03:45:03.150Z,72.63
2018-08-06T03:47:32.084Z,73.59
2018-08-06T03:50:01.033Z,73.89
2018-08-06T03:52:30.203Z,73.44
2018-08-06T03:54:59.128Z,74.22
2018-08-06T03:57:28.130Z,73.87
2018-08-06T03:59:57.213Z,73.92
2018-08-06T04:02:26.140Z,74.47
2018-08-06T04:04:55.132Z,74.54
2018-08-06T04:07:24.142Z,75.00
2018-08-06T04:09:53.363Z,75.42
2018-08-06T04:12:22.299Z,75.35
2018-08-06T04:14:51.239Z,75.72
2018-08-06T04:17:20.188Z,75.20
2018-08-06T04:19:49.314Z,75.35
2018-08-06T04:22:18.241Z,75.57
2018-08-06T04:24:47.963Z,76.56
2018-08-06T04:27:16.927Z,75.98
2018-08-06T04:29:45.833Z,75.89
2018-08-06T04:32:14.868Z,76.32
2018-08-06T04:34:43.809Z,75.81
2018-08-06T04:37:12.809Z,76.02
2018-08-06T04:39:41.706Z,74.62
2018-08-06T04:42:10.716Z,74.96
2018-08-06T04:44:39.656Z,74.84
2018-08-06T04:47:08.610Z,75.13
2018-08-06T04:49:37.613Z,74.44
2018-08-06T04:52:06.807Z,74.47
2018-08-06T04:54:35.739Z,74.04
2018-08-06T04:57:04.803Z,73.73
2018-08-06T04:59:33.989Z,73.19
2018-08-06T05:02:02.985Z,72.81
2018-08-06T05:04:32.147Z,71.86
2018-08-06T05:07:01.257Z,71.52
2018-08-06T05:09:46.196Z,71.20
2018-08-06T05:12:15.189Z,70.63
2018-08-06T05:14:44.126Z,70.57
2018-08-06T05:17:13.155Z,70.54
2018-08-06T05:19:42.055Z,69.89
2018-08-06T05:22:11.033Z,68.94
2018-08-06T05:24:40.030Z,69.67
2018-08-06T05:27:08.925Z,68.81
2018-08-06T05:29:37.881Z,68.83
2018-08-06T05:32:06.852Z,68.29
2018-08-06T05:34:35.822Z,68.25
2018-08-06T05:37:04.821Z,68.85
2018-08-06T05:39:34.012Z,68.63
2018-08-06T05:42:03.006Z,68.71
2018-08-06T05:44:32.055Z,68.50
2018-08-06T05:47:01.057Z,68.15
2018-08-06T05:49:30.071Z,68.45
2018-08-06T05:51:59.023Z,68.79
2018-08-06T05:54:28.096Z,68.12
2018-08-06T05:56:57.046Z,67.29
2018-08-06T05:59:26.003Z,67.70
2018-08-06T06:01:54.935Z,67.05
2018-08-06T06:04:23.892Z,67.52
2018-08-06T06:06:52.847Z,67.14
2018-08-06T06:09:21.834Z,68.01
2018-08-06T06:11:50.778Z,67.27
2018-08-06T06:14:19.708Z,67.16
2018-08-06T06:16:48.610Z,66.36
2018-08-06T06:19:17.591Z,65.94
2018-08-06T06:21:46.458Z,64.94
2018-08-06T06:24:15.412Z,64.47
2018-08-06T06:26:44.338Z,64.07
2018-08-06T06:29:13.310Z,64.46
2018-08-06T06:31:42.231Z,63.42
2018-08-06T06:34:11.158Z,63.27
2018-08-06T06:36:40.148Z,63.21
2018-08-06T06:39:10.581Z,62.58
2018-08-06T06:41:39.958Z,61.29
2018-08-06T06:44:09.445Z,62.14
2018-08-06T06:46:39.347Z,60.66
2018-08-06T06:49:08.745Z,59.75
2018-08-06T06:51:37.759Z,59.76
2018-08-06T06:54:06.987Z,59.91
2018-08-06T06:56:36.083Z,58.88
2018-08-06T06:59:05.158Z,59.00
2018-08-06T07:01:34.141Z,57.68
2018-08-06T07:04:03.103Z,58.14
2018-08-06T07:06:32.112Z,57.51
2018-08-06T07:09:01.031Z,58.37
2018-08-06T07:11:29.993Z,57.65
2018-08-06T07:13:59.015Z,56.56
2018-08-06T07:16:27.958Z,57.37
2018-08-06T07:18:56.938Z,56.83
2018-08-06T07:21:25.921Z,55.62
2018-08-06T07:23:54.925Z,54.35
2018-08-06T07:26:23.869Z,52.88
2018-08-06T07:28:52.824Z,53.27
2018-08-06T07:31:21.822Z,51.43
2018-08-06T07:33:50.834Z,51.37
2018-08-06T07:36:19.783Z,47.85
2018-08-06T07:38:48.764Z,45.77
2018-08-06T07:41:17.680Z,40.44
2018-08-06T07:43:46.711Z,37.66
2018-08-06T07:46:15.698Z,37.66
2018-08-06T07:48:44.638Z,35.19
2018-08-06T07:51:13.614Z,35.88
2018-08-06T07:53:42.868Z,32.76
2018-08-06T07:56:12.618Z,34.54
2018-08-06T07:58:42.263Z,32.29
2018-08-06T08:01:11.672Z,32.78
2018-08-06T08:03:40.878Z,31.59
2018-08-06T08:06:10.110Z,32.62
2018-08-06T08:08:39.070Z,35.42
2018-08-06T08:11:08.322Z,39.01
2018-08-06T08:13:37.379Z,41.09
2018-08-06T08:16:07.191Z,43.55
2018-08-06T08:18:36.610Z,42.91
2018-08-06T08:21:05.706Z,41.63
2018-08-06T08:23:34.823Z,40.50
2018-08-06T08:26:03.903Z,41.79
2018-08-06T08:28:33.014Z,40.61
2018-08-06T08:31:02.351Z,37.92
2018-08-06T08:33:31.581Z,38.50
2018-08-06T08:36:00.535Z,38.52
2018-08-06T08:38:29.346Z,40.48
2018-08-06T08:40:58.490Z,39.72
2018-08-06T08:43:27.812Z,37.71
2018-08-06T08:45:56.839Z,37.67
2018-08-06T08:48:25.965Z,36.16
2018-08-06T08:50:56.307Z,35.10
2018-08-06T08:53:25.600Z,33.91
2018-08-06T08:55:54.662Z,37.37
2018-08-06T08:58:23.616Z,38.75
2018-08-06T09:00:52.883Z,36.30
2018-08-06T09:03:21.823Z,35.04
2018-08-06T09:05:51.055Z,33.26
2018-08-06T09:08:20.159Z,33.23
2018-08-06T09:10:49.556Z,32.99
2018-08-06T09:13:18.760Z,34.96
2018-08-06T09:15:48.315Z,36.24
2018-08-06T09:18:17.402Z,36.64
2018-08-06T09:20:46.667Z,36.02
2018-08-06T09:23:15.949Z,35.21
2018-08-06T09:25:45.030Z,35.46
2018-08-06T09:28:13.968Z,35.39
2018-08-06T09:30:43.246Z,36.20
2018-08-06T09:33:12.349Z,34.55
2018-08-06T09:35:41.434Z,35.08
2018-08-06T09:38:10.890Z,38.04
2018-08-06T09:40:39.918Z,36.85
2018-08-06T09:43:08.933Z,37.51
2018-08-06T09:45:38.019Z,35.04
2018-08-06T09:48:07.114Z,32.18
2018-08-06T09:50:36.418Z,31.82
2018-08-06T09:53:05.950Z,30.31
2018-08-06T09:55:34.909Z,29.25
2018-08-06T09:58:04.095Z,28.66
2018-08-06T10:00:38.470Z,28.66
2018-08-06T10:03:07.438Z,26.85
2018-08-06T10:05:36.569Z,28.57
2018-08-06T10:08:05.839Z,30.61
2018-08-06T10:10:34.903Z,27.92
2018-08-06T10:13:03.998Z,30.47
2018-08-06T10:15:33.001Z,30.03
2018-08-06T10:18:02.566Z,27.47
2018-08-06T10:20:31.724Z,28.59
2018-08-06T10:23:01.003Z,28.62
2018-08-06T10:25:29.925Z,28.63
2018-08-06T10:27:58.919Z,32.21
2018-08-06T10:30:28.107Z,31.81
2018-08-06T10:32:57.199Z,31.48
2018-08-06T10:35:26.276Z,30.28
2018-08-06T10:37:55.894Z,27.69
2018-08-06T10:40:25.456Z,29.25
2018-08-06T10:42:54.703Z,27.41
2018-08-06T10:45:25.283Z,29.44
2018-08-06T10:47:55.369Z,28.54
2018-08-06T10:50:24.526Z,28.05
2018-08-06T10:52:53.802Z,27.01
2018-08-06T10:55:22.983Z,26.79
2018-08-06T10:57:52.219Z,25.47
2018-08-06T11:00:23.003Z,26.72
2018-08-06T11:02:52.655Z,28.08
2018-08-06T11:05:22.420Z,30.11
2018-08-06T11:07:51.434Z,28.04
2018-08-06T11:10:23.058Z,26.83
2018-08-06T11:12:52.338Z,29.40
2018-08-06T11:15:23.040Z,28.30
2018-08-06T11:17:52.178Z,31.02
2018-08-06T11:20:21.937Z,30.42
2018-08-06T11:22:51.175Z,30.72
2018-08-06T11:25:22.054Z,29.71
2018-08-06T11:27:51.226Z,31.33
2018-08-06T11:30:23.374Z,31.49
2018-08-06T11:32:53.680Z,29.87
2018-08-06T11:35:22.807Z,29.96
2018-08-06T11:37:52.103Z,29.73
2018-08-06T11:40:21.188Z,28.47
2018-08-06T11:42:50.131Z,27.26
2018-08-06T11:45:21.088Z,28.91
2018-08-06T11:47:50.323Z,29.11
2018-08-06T11:50:19.818Z,27.97
2018-08-06T11:52:49.138Z,27.41
2018-08-06T11:55:18.586Z,27.52
2018-08-06T11:57:48.146Z,27.61
2018-08-06T12:00:20.573Z,27.76
2018-08-06T12:02:49.827Z,28.32
2018-08-06T12:05:19.283Z,28.18
2018-08-06T12:07:48.418Z,26.66
2018-08-06T12:10:18.959Z,27.66
2018-08-06T12:12:49.054Z,27.79
2018-08-06T12:15:18.825Z,26.27
2018-08-06T12:17:48.618Z,26.29
2018-08-06T12:20:19.334Z,26.99
2018-08-06T12:22:50.125Z,26.36
2018-08-06T12:25:19.915Z,26.69
2018-08-06T12:27:49.866Z,26.28
2018-08-06T12:30:20.578Z,26.83
2018-08-06T12:32:50.639Z,26.73
2018-08-06T12:35:20.131Z,25.91
2018-08-06T12:37:49.833Z,26.11
2018-08-06T12:40:21.489Z,26.05
2018-08-06T12:42:50.694Z,24.00
2018-08-06T12:45:19.980Z,25.14
2018-08-06T12:47:49.287Z,24.05
2018-08-06T12:50:18.682Z,24.30
2018-08-06T12:52:48.041Z,23.90
2018-08-06T12:55:18.469Z,24.55
2018-08-06T12:57:48.249Z,25.26
2018-08-06T13:00:21.434Z,24.89
2018-08-06T13:02:51.690Z,25.09
2018-08-06T13:05:21.787Z,24.72
2018-08-06T13:07:51.507Z,25.32
2018-08-06T13:10:21.185Z,24.65
2018-08-06T13:12:50.218Z,24.92
2018-08-06T13:15:19.782Z,24.35
2018-08-06T13:17:50.693Z,24.50
2018-08-06T13:20:20.969Z,24.10
2018-08-06T13:22:50.202Z,23.20
2018-08-06T13:25:19.489Z,23.02
2018-08-06T13:27:49.328Z,24.36
2018-08-06T13:30:18.229Z,24.46
2018-08-06T13:32:47.550Z,23.59
2018-08-06T13:35:17.083Z,23.85
2018-08-06T13:37:46.345Z,24.00
2018-08-06T13:40:15.638Z,22.94
2018-08-06T13:42:44.729Z,23.30
2018-08-06T13:45:14.651Z,23.59
2018-08-06T13:47:43.981Z,23.89
2018-08-06T13:50:14.435Z,23.07
2018-08-06T13:52:44.136Z,22.54
2018-08-06T13:55:14.152Z,22.94
2018-08-06T13:57:43.451Z,23.67
2018-08-06T14:00:19.973Z,24.03
2018-08-06T14:02:49.196Z,23.48
2018-08-06T14:05:19.587Z,23.37
2018-08-06T14:07:49.426Z,22.82
2018-08-06T14:10:19.139Z,23.79
2018-08-06T14:12:49.063Z,23.11
2018-08-06T14:15:19.340Z,22.90
2018-08-06T14:17:48.870Z,23.07
2018-08-06T14:20:19.240Z,22.74
2018-08-06T14:22:49.216Z,22.87
2018-08-06T14:25:19.386Z,23.71
2018-08-06T14:27:49.606Z,22.52
2018-08-06T14:30:18.831Z,22.49
2018-08-06T14:32:47.938Z,22.32
2018-08-06T14:35:17.444Z,22.60
2018-08-06T14:37:47.655Z,21.53
2018-08-06T14:40:18.674Z,22.81
2018-08-06T14:42:48.099Z,22.68
2018-08-06T14:45:18.546Z,22.64
2018-08-06T14:47:47.631Z,22.18
2018-08-06T14:50:17.097Z,21.70
2018-08-06T14:52:46.255Z,21.76
2018-08-06T14:55:15.988Z,22.98
2018-08-06T14:57:45.230Z,22.74
2018-08-06T15:00:17.375Z,22.54
2018-08-06T15:02:47.157Z,22.93
2018-08-06T15:05:16.427Z,23.19
2018-08-06T15:07:45.397Z,22.76
2018-08-06T15:10:15.474Z,23.12
2018-08-06T15:12:44.961Z,23.60
2018-08-06T15:15:15.831Z,23.50
2018-08-06T15:17:45.832Z,23.73
2018-08-06T15:20:16.803Z,23.44
2018-08-06T15:22:46.409Z,24.19
2018-08-06T15:25:20.567Z,24.05
2018-08-06T15:27:50.166Z,24.10
2018-08-06T15:30:19.878Z,24.92
2018-08-06T15:32:48.976Z,25.03
2018-08-06T15:35:18.814Z,25.41
2018-08-06T15:37:47.983Z,25.26
2018-08-06T15:40:19.294Z,25.40
2018-08-06T15:42:49.391Z,25.66
2018-08-06T15:45:18.778Z,25.43
2018-08-06T15:47:48.316Z,25.33
2018-08-06T15:50:19.071Z,25.28
2018-08-06T15:52:48.480Z,24.02
2018-08-06T15:55:17.455Z,23.87
2018-08-06T15:57:47.149Z,23.90
2018-08-06T16:00:17.312Z,24.96
2018-08-06T16:02:46.578Z,24.56
2018-08-06T16:05:15.710Z,25.87
2018-08-06T16:07:45.270Z,26.14
2018-08-06T16:10:14.882Z,25.99
2018-08-06T16:12:44.182Z,25.27
2018-08-06T16:15:14.598Z,25.18
2018-08-06T16:17:44.551Z,25.40
2018-08-06T16:20:15.102Z,25.00
2018-08-06T16:22:45.216Z,25.23
2018-08-06T16:25:14.712Z,25.61
2018-08-06T16:27:44.165Z,25.46
2018-08-06T16:30:18.279Z,25.78
2018-08-06T16:32:48.979Z,25.41
2018-08-06T16:35:19.652Z,26.50
2018-08-06T16:37:49.565Z,26.63
2018-08-06T16:40:18.997Z,26.44
2018-08-06T16:42:48.528Z,26.98
2018-08-06T16:45:17.526Z,26.99
2018-08-06T16:47:46.553Z,26.59
2018-08-06T16:50:16.543Z,26.67
2018-08-06T16:52:45.891Z,27.16
2018-08-06T16:55:15.459Z,27.18
2018-08-06T16:57:44.430Z,27.74
2018-08-06T17:00:17.643Z,27.94
2018-08-06T17:02:46.845Z,29.01
2018-08-06T17:05:15.806Z,28.38
2018-08-06T17:07:45.958Z,28.33
2018-08-06T17:10:17.090Z,28.58
2018-08-06T17:12:48.465Z,28.78
2018-08-06T17:15:18.664Z,30.11
2018-08-06T17:17:48.330Z,28.13
2018-08-06T17:20:19.103Z,28.54
2018-08-06T17:22:49.187Z,28.57
2018-08-06T17:25:18.208Z,28.67
2018-08-06T17:27:47.215Z,28.38
2018-08-06T17:30:16.859Z,29.27
2018-08-06T17:32:46.528Z,30.47
2018-08-06T17:35:16.058Z,29.00
2018-08-06T17:37:45.850Z,28.73
2018-08-06T17:40:16.784Z,29.25
2018-08-06T17:42:46.303Z,31.00
2018-08-06T17:45:19.859Z,29.39
2018-08-06T17:47:49.319Z,31.57
2018-08-06T17:50:20.134Z,30.10
2018-08-06T17:52:50.150Z,30.83
2018-08-06T17:55:20.339Z,28.80
2018-08-06T17:57:50.177Z,28.88
2018-08-06T18:00:20.083Z,27.81
2018-08-06T18:02:49.390Z,28.22
2018-08-06T18:05:19.012Z,27.81
2018-08-06T18:07:48.626Z,27.82
2018-08-06T18:10:18.471Z,28.67
2018-08-06T18:12:48.115Z,29.69
2018-08-06T18:15:17.309Z,28.06
2018-08-06T18:17:46.598Z,29.12
2018-08-06T18:20:18.486Z,29.60
2018-08-06T18:22:47.888Z,29.92
2018-08-06T18:25:18.816Z,30.46
2018-08-06T18:27:48.919Z,28.50
2018-08-06T18:30:19.702Z,29.22
2018-08-06T18:32:48.971Z,28.53
2018-08-06T18:35:19.202Z,30.52
2018-08-06T18:37:48.565Z,31.92
2018-08-06T18:40:19.340Z,30.84
2018-08-06T18:42:48.870Z,32.31
2018-08-06T18:45:20.253Z,29.27
2018-08-06T18:47:50.284Z,32.83
2018-08-06T18:50:19.990Z,30.68
2018-08-06T18:52:49.924Z,31.97
2018-08-06T18:55:19.870Z,30.93
2018-08-06T18:57:49.246Z,31.86
2018-08-06T19:00:22.644Z,33.42
2018-08-06T19:02:52.125Z,33.76
2018-08-06T19:05:21.238Z,33.44
2018-08-06T19:07:50.619Z,33.62
2018-08-06T19:10:19.903Z,34.68
2018-08-06T19:12:54.536Z,33.96
2018-08-06T19:15:23.631Z,34.35
2018-08-06T19:17:57.967Z,34.66
2018-08-06T19:20:27.040Z,35.48
2018-08-06T19:22:56.255Z,35.55
2018-08-06T19:25:27.225Z,36.25
2018-08-06T19:27:56.801Z,35.50
2018-08-06T19:30:31.126Z,35.31
2018-08-06T19:33:01.335Z,35.91
2018-08-06T19:35:30.575Z,35.70
2018-08-06T19:37:59.819Z,36.77
2018-08-06T19:40:28.883Z,37.24
2018-08-06T19:43:03.267Z,37.74
2018-08-06T19:45:32.501Z,39.79
2018-08-06T19:48:01.498Z,38.24
2018-08-06T19:50:35.774Z,40.09
2018-08-06T19:53:04.776Z,38.96
2018-08-06T19:55:39.098Z,39.20
2018-08-06T19:58:08.051Z,39.86
2018-08-06T20:00:37.094Z,39.80
2018-08-06T20:03:06.238Z,40.45
2018-08-06T20:05:35.230Z,40.85
2018-08-06T20:08:04.235Z,41.51
2018-08-06T20:10:33.233Z,41.39
2018-08-06T20:13:02.262Z,42.19
2018-08-06T20:15:31.240Z,42.70
2018-08-06T20:18:00.272Z,42.29
2018-08-06T20:20:29.158Z,42.61
2018-08-06T20:22:58.108Z,43.85
2018-08-06T20:25:27.075Z,43.08
2018-08-06T20:27:56.122Z,42.59
2018-08-06T20:30:25.603Z,43.68
2018-08-06T20:32:54.549Z,43.55
2018-08-06T20:35:23.555Z,44.15
2018-08-06T20:37:52.555Z,43.77
2018-08-06T20:40:21.532Z,44.06
2018-08-06T20:42:50.565Z,43.46
2018-08-06T20:45:20.694Z,43.85
2018-08-06T20:47:49.700Z,44.84
2018-08-06T20:50:20.142Z,44.52
2018-08-06T20:52:50.604Z,44.99
2018-08-06T20:55:19.687Z,45.36
2018-08-06T20:57:49.542Z,45.14
2018-08-06T21:00:20.882Z,45.96
2018-08-06T21:02:50.682Z,44.98
2018-08-06T21:05:19.880Z,46.25
2018-08-06T21:07:49.094Z,46.07
2018-08-06T21:10:19.608Z,46.62
2018-08-06T21:12:49.338Z,46.44
2018-08-06T21:15:18.417Z,47.08
2018-08-06T21:17:47.412Z,47.34
2018-08-06T21:20:18.198Z,47.22
2018-08-06T21:22:48.837Z,48.24
2018-08-06T21:25:17.903Z,48.39
2018-08-06T21:27:47.955Z,48.33
2018-08-06T21:30:18.718Z,48.32
2018-08-06T21:32:51.086Z,49.31
2018-08-06T21:35:20.877Z,49.07
2018-08-06T21:37:51.105Z,49.05
2018-08-06T21:40:20.728Z,48.42
2018-08-06T21:42:50.203Z,48.89
2018-08-06T21:45:19.493Z,48.95
2018-08-06T21:47:48.887Z,48.62
2018-08-06T21:50:17.903Z,48.89
2018-08-06T21:52:46.951Z,48.85
2018-08-06T21:55:15.950Z,48.58
2018-08-06T21:57:44.916Z,49.55
2018-08-06T22:00:38.262Z,48.80
2018-08-06T22:03:15.366Z,47.82
2018-08-06T22:05:44.743Z,47.81
2018-08-06T22:08:13.770Z,47.78
2018-08-06T22:10:42.767Z,47.74
2018-08-06T22:13:11.908Z,47.75
2018-08-06T22:15:40.951Z,47.37
2018-08-06T22:18:11.139Z,48.05
2018-08-06T22:20:40.148Z,47.54
2018-08-06T22:23:09.311Z,48.18
2018-08-06T22:25:38.400Z,47.77
2018-08-06T22:28:09.115Z,49.04
2018-08-06T22:30:38.109Z,49.68
2018-08-06T22:33:07.151Z,50.19
2018-08-06T22:35:36.287Z,51.19
2018-08-06T22:38:05.299Z,49.57
2018-08-06T22:40:34.296Z,50.18
2018-08-06T22:43:03.260Z,50.50
2018-08-06T22:45:32.212Z,51.54
2018-08-06T22:48:01.182Z,51.96
2018-08-06T22:50:30.131Z,51.48
2018-08-06T22:52:59.092Z,52.21
2018-08-06T22:55:28.072Z,52.45
2018-08-06T22:57:57.290Z,53.88
2018-08-06T23:00:26.227Z,54.49
2018-08-06T23:02:55.158Z,54.18
2018-08-06T23:05:24.246Z,53.57
2018-08-06T23:07:53.242Z,53.95
2018-08-06T23:10:22.323Z,54.96
2018-08-06T23:12:51.242Z,53.12
2018-08-06T23:15:20.322Z,54.37
2018-08-06T23:17:49.301Z,55.99
2018-08-06T23:20:18.255Z,54.60
2018-08-06T23:22:47.167Z,56.04
2018-08-06T23:25:16.186Z,56.78
2018-08-06T23:27:45.743Z,56.67
2018-08-06T23:30:15.595Z,55.61
2018-08-06T23:32:45.591Z,56.71
2018-08-06T23:35:14.801Z,57.43
2018-08-06T23:37:44.862Z,57.33
2018-08-06T23:40:14.488Z,58.17
2018-08-06T23:42:43.858Z,59.02
2018-08-06T23:45:14.551Z,58.09
2018-08-06T23:47:43.662Z,59.13
2018-08-06T23:50:13.999Z,59.47
2018-08-06T23:52:44.334Z,60.67
2018-08-06T23:55:14.563Z,60.13
2018-08-06T23:57:43.544Z,60.07
